sensor_id;sensor_type;location;lat;lon;timestamp;pressure;altitude;pressure_sealevel;temperature;humidity
64792;BME280;51226;47.504;19.074;2023-06-22T00:01:23;100427.47;;;23.77;75.22
64792;BME280;51226;47.504;19.074;2023-06-22T00:04:27;100432.81;;;23.77;75.11
64792;BME280;51226;47.504;19.074;2023-06-22T00:07:29;100435.41;;;23.79;75.31
64792;BME280;51226;47.504;19.074;2023-06-22T00:10:32;100447.84;;;23.80;75.44
64792;BME280;51226;47.504;19.074;2023-06-22T00:13:35;100446.06;;;23.80;75.86
64792;BME280;51226;47.504;19.074;2023-06-22T00:16:38;100446.97;;;23.82;75.97
64792;BME280;51226;47.504;19.074;2023-06-22T00:19:40;100449.56;;;23.85;76.22
64792;BME280;51226;47.504;19.074;2023-06-22T00:22:46;100447.84;;;23.83;76.50
64792;BME280;51226;47.504;19.074;2023-06-22T00:25:50;100468.19;;;23.85;76.67
64792;BME280;51226;47.504;19.074;2023-06-22T00:28:53;100461.97;;;23.86;76.92
64792;BME280;51226;47.504;19.074;2023-06-22T00:31:57;100455.81;;;23.84;76.77
64792;BME280;51226;47.504;19.074;2023-06-22T00:35:00;100461.16;;;23.81;77.14
64792;BME280;51226;47.504;19.074;2023-06-22T00:38:04;100463.81;;;23.81;77.16
64792;BME280;51226;47.504;19.074;2023-06-22T00:41:07;100457.63;;;23.79;77.42
64792;BME280;51226;47.504;19.074;2023-06-22T00:44:10;100454.19;;;23.73;77.96
64792;BME280;51226;47.504;19.074;2023-06-22T00:47:13;100447.94;;;23.72;77.20
64792;BME280;51226;47.504;19.074;2023-06-22T00:50:21;100451.09;;;24.00;74.01
64792;BME280;51226;47.504;19.074;2023-06-22T00:53:25;100448.75;;;23.79;75.12
64792;BME280;51226;47.504;19.074;2023-06-22T00:56:29;100449.97;;;23.58;74.89
64792;BME280;51226;47.504;19.074;2023-06-22T00:59:32;100444.50;;;23.65;71.88
64792;BME280;51226;47.504;19.074;2023-06-22T01:02:35;100442.25;;;23.39;73.38
64792;BME280;51226;47.504;19.074;2023-06-22T01:05:39;100432.59;;;23.30;73.46
64792;BME280;51226;47.504;19.074;2023-06-22T01:08:50;100445.03;;;23.27;73.59
64792;BME280;51226;47.504;19.074;2023-06-22T01:11:54;100447.72;;;23.27;73.59
64792;BME280;51226;47.504;19.074;2023-06-22T01:15:13;100442.28;;;23.36;71.92
64792;BME280;51226;47.504;19.074;2023-06-22T01:18:18;100438.84;;;23.28;72.33
64792;BME280;51226;47.504;19.074;2023-06-22T01:21:22;100446.00;;;23.23;72.33
64792;BME280;51226;47.504;19.074;2023-06-22T01:24:33;100438.94;;;23.20;72.67
64792;BME280;51226;47.504;19.074;2023-06-22T01:27:53;100438.88;;;23.25;73.48
64792;BME280;51226;47.504;19.074;2023-06-22T01:30:59;100448.53;;;23.32;72.19
64792;BME280;51226;47.504;19.074;2023-06-22T01:34:09;100442.06;;;23.52;70.99
64792;BME280;51226;47.504;19.074;2023-06-22T01:37:12;100443.87;;;23.49;71.72
64792;BME280;51226;47.504;19.074;2023-06-22T01:40:15;100443.16;;;23.35;72.41
64792;BME280;51226;47.504;19.074;2023-06-22T01:43:19;100439.69;;;23.30;72.83
64792;BME280;51226;47.504;19.074;2023-06-22T01:46:25;100449.44;;;23.33;73.05
64792;BME280;51226;47.504;19.074;2023-06-22T01:49:28;100444.16;;;23.28;73.17
64792;BME280;51226;47.504;19.074;2023-06-22T01:52:31;100435.28;;;23.29;73.85
64792;BME280;51226;47.504;19.074;2023-06-22T01:55:36;100443.19;;;23.32;73.88
64792;BME280;51226;47.504;19.074;2023-06-22T01:58:41;100448.47;;;23.37;74.13
64792;BME280;51226;47.504;19.074;2023-06-22T02:01:54;100445.78;;;23.38;74.14
64792;BME280;51226;47.504;19.074;2023-06-22T02:05:05;100448.34;;;23.46;73.04
64792;BME280;51226;47.504;19.074;2023-06-22T02:08:10;100438.56;;;23.46;73.44
64792;BME280;51226;47.504;19.074;2023-06-22T02:11:14;100449.25;;;23.43;74.08
64792;BME280;51226;47.504;19.074;2023-06-22T02:14:20;100458.09;;;23.45;74.24
64792;BME280;51226;47.504;19.074;2023-06-22T02:17:23;100459.00;;;23.47;74.53
64792;BME280;51226;47.504;19.074;2023-06-22T02:20:27;100457.16;;;23.51;74.72
64792;BME280;51226;47.504;19.074;2023-06-22T02:23:31;100456.19;;;23.57;75.80
64792;BME280;51226;47.504;19.074;2023-06-22T02:26:36;100457.13;;;23.53;77.08
64792;BME280;51226;47.504;19.074;2023-06-22T02:29:40;100473.16;;;23.48;77.97
64792;BME280;51226;47.504;19.074;2023-06-22T02:32:44;100477.63;;;23.47;78.91
64792;BME280;51226;47.504;19.074;2023-06-22T02:35:49;100465.97;;;23.55;79.98
64792;BME280;51226;47.504;19.074;2023-06-22T02:38:53;100468.72;;;23.48;80.35
64792;BME280;51226;47.504;19.074;2023-06-22T02:41:56;100470.53;;;23.45;80.57
64792;BME280;51226;47.504;19.074;2023-06-22T02:44:59;100474.03;;;23.48;80.57
64792;BME280;51226;47.504;19.074;2023-06-22T02:48:02;100468.75;;;23.45;80.50
64792;BME280;51226;47.504;19.074;2023-06-22T02:51:05;100477.69;;;23.43;80.57
64792;BME280;51226;47.504;19.074;2023-06-22T02:54:08;100483.00;;;23.43;80.59
64792;BME280;51226;47.504;19.074;2023-06-22T02:57:11;100478.53;;;23.43;80.60
64792;BME280;51226;47.504;19.074;2023-06-22T03:00:16;100480.34;;;23.43;79.81
64792;BME280;51226;47.504;19.074;2023-06-22T03:03:22;100478.56;;;23.42;79.82
64792;BME280;51226;47.504;19.074;2023-06-22T03:06:25;100475.91;;;23.40;79.19
64792;BME280;51226;47.504;19.074;2023-06-22T03:09:31;100482.19;;;23.36;79.50
64792;BME280;51226;47.504;19.074;2023-06-22T03:12:33;100479.53;;;23.36;79.32
64792;BME280;51226;47.504;19.074;2023-06-22T03:15:36;100488.37;;;23.38;78.94
64792;BME280;51226;47.504;19.074;2023-06-22T03:18:39;100471.50;;;23.41;78.50
64792;BME280;51226;47.504;19.074;2023-06-22T03:21:42;100475.06;;;23.40;78.52
64792;BME280;51226;47.504;19.074;2023-06-22T03:24:44;100477.69;;;23.41;78.45
64792;BME280;51226;47.504;19.074;2023-06-22T03:27:47;100482.97;;;23.44;77.95
64792;BME280;51226;47.504;19.074;2023-06-22T03:30:50;100476.69;;;23.48;77.46
64792;BME280;51226;47.504;19.074;2023-06-22T03:33:53;100481.19;;;23.45;77.47
64792;BME280;51226;47.504;19.074;2023-06-22T03:36:57;100487.38;;;23.45;77.10
64792;BME280;51226;47.504;19.074;2023-06-22T03:40:00;100478.59;;;23.39;77.08
64792;BME280;51226;47.504;19.074;2023-06-22T03:43:03;100471.56;;;23.35;76.90
64792;BME280;51226;47.504;19.074;2023-06-22T03:46:06;100469.88;;;23.29;76.92
64792;BME280;51226;47.504;19.074;2023-06-22T03:49:09;100470.00;;;23.20;77.33
64792;BME280;51226;47.504;19.074;2023-06-22T03:52:12;100479.75;;;23.21;77.29
64792;BME280;51226;47.504;19.074;2023-06-22T03:55:14;100478.81;;;23.22;77.30
64792;BME280;51226;47.504;19.074;2023-06-22T03:58:18;100481.50;;;23.22;77.55
64792;BME280;51226;47.504;19.074;2023-06-22T04:01:21;100489.41;;;23.26;77.66
64792;BME280;51226;47.504;19.074;2023-06-22T04:04:24;100488.56;;;23.26;77.98
64792;BME280;51226;47.504;19.074;2023-06-22T04:07:27;100484.00;;;23.36;78.30
64792;BME280;51226;47.504;19.074;2023-06-22T04:10:30;100482.16;;;23.41;78.24
64792;BME280;51226;47.504;19.074;2023-06-22T04:13:32;100497.19;;;23.43;78.20
64792;BME280;51226;47.504;19.074;2023-06-22T04:16:35;100500.81;;;23.39;78.45
64792;BME280;51226;47.504;19.074;2023-06-22T04:19:38;100500.00;;;23.33;78.34
64792;BME280;51226;47.504;19.074;2023-06-22T04:22:40;100498.19;;;23.35;77.69
64792;BME280;51226;47.504;19.074;2023-06-22T04:25:43;100496.34;;;23.40;76.59
64792;BME280;51226;47.504;19.074;2023-06-22T04:28:46;100498.97;;;23.44;75.79
64792;BME280;51226;47.504;19.074;2023-06-22T04:31:53;100504.31;;;23.41;76.06
64792;BME280;51226;47.504;19.074;2023-06-22T04:34:59;100499.81;;;23.46;74.86
64792;BME280;51226;47.504;19.074;2023-06-22T04:38:04;100495.47;;;23.39;75.63
64792;BME280;51226;47.504;19.074;2023-06-22T04:41:07;100506.97;;;23.43;75.70
64792;BME280;51226;47.504;19.074;2023-06-22T04:44:15;100502.44;;;23.49;75.61
64792;BME280;51226;47.504;19.074;2023-06-22T04:47:28;100504.09;;;23.58;74.52
64792;BME280;51226;47.504;19.074;2023-06-22T04:50:30;100504.13;;;23.55;74.83
64792;BME280;51226;47.504;19.074;2023-06-22T04:53:33;100504.91;;;23.63;74.75
64792;BME280;51226;47.504;19.074;2023-06-22T04:56:36;100512.78;;;23.71;74.22
64792;BME280;51226;47.504;19.074;2023-06-22T04:59:39;100513.66;;;23.72;74.30
64792;BME280;51226;47.504;19.074;2023-06-22T05:02:44;100513.66;;;23.72;75.05
64792;BME280;51226;47.504;19.074;2023-06-22T05:05:48;100521.59;;;23.76;75.09
64792;BME280;51226;47.504;19.074;2023-06-22T05:08:53;100520.62;;;23.83;75.07
64792;BME280;51226;47.504;19.074;2023-06-22T05:12:00;100511.78;;;23.80;74.78
64792;BME280;51226;47.504;19.074;2023-06-22T05:15:05;100523.28;;;23.80;74.60
64792;BME280;51226;47.504;19.074;2023-06-22T05:18:09;100523.38;;;23.77;73.91
64792;BME280;51226;47.504;19.074;2023-06-22T05:21:11;100523.28;;;23.80;73.72
64792;BME280;51226;47.504;19.074;2023-06-22T05:24:14;100529.41;;;23.90;73.20
64792;BME280;51226;47.504;19.074;2023-06-22T05:27:17;100526.56;;;24.04;72.20
64792;BME280;51226;47.504;19.074;2023-06-22T05:30:20;100529.97;;;24.12;70.77
64792;BME280;51226;47.504;19.074;2023-06-22T05:33:23;100537.81;;;24.23;69.35
64792;BME280;51226;47.504;19.074;2023-06-22T05:36:26;100540.44;;;24.25;69.23
64792;BME280;51226;47.504;19.074;2023-06-22T05:39:29;100539.41;;;24.33;68.85
64792;BME280;51226;47.504;19.074;2023-06-22T05:42:32;100542.81;;;24.43;68.39
64792;BME280;51226;47.504;19.074;2023-06-22T05:45:34;100545.31;;;24.52;68.72
64792;BME280;51226;47.504;19.074;2023-06-22T05:48:37;100549.75;;;24.55;67.75
64792;BME280;51226;47.504;19.074;2023-06-22T05:51:39;100542.37;;;24.71;65.49
64792;BME280;51226;47.504;19.074;2023-06-22T05:54:42;100552.03;;;24.78;64.23
64792;BME280;51226;47.504;19.074;2023-06-22T05:57:45;100556.34;;;24.85;62.36
64792;BME280;51226;47.504;19.074;2023-06-22T06:00:48;100557.34;;;24.78;64.09
64792;BME280;51226;47.504;19.074;2023-06-22T06:03:51;100559.22;;;24.73;64.62
64792;BME280;51226;47.504;19.074;2023-06-22T06:06:55;100564.22;;;24.91;63.09
64792;BME280;51226;47.504;19.074;2023-06-22T06:09:57;100554.06;;;25.12;61.97
64792;BME280;51226;47.504;19.074;2023-06-22T06:13:00;100546.06;;;25.10;61.99
64792;BME280;51226;47.504;19.074;2023-06-22T06:16:04;100557.16;;;25.37;59.51
64792;BME280;51226;47.504;19.074;2023-06-22T06:19:07;100559.00;;;25.33;59.10
64792;BME280;51226;47.504;19.074;2023-06-22T06:22:10;100561.75;;;25.29;58.73
64792;BME280;51226;47.504;19.074;2023-06-22T06:25:13;100556.38;;;25.30;59.87
64792;BME280;51226;47.504;19.074;2023-06-22T06:28:19;100550.50;;;25.57;57.14
64792;BME280;51226;47.504;19.074;2023-06-22T06:31:21;100546.88;;;25.59;57.44
64792;BME280;51226;47.504;19.074;2023-06-22T06:34:25;100547.53;;;25.70;57.17
64792;BME280;51226;47.504;19.074;2023-06-22T06:37:27;100544.88;;;25.70;58.79
64792;BME280;51226;47.504;19.074;2023-06-22T06:40:30;100550.50;;;25.99;56.76
64792;BME280;51226;47.504;19.074;2023-06-22T06:43:33;100546.50;;;26.18;55.56
64792;BME280;51226;47.504;19.074;2023-06-22T06:46:36;100546.19;;;26.31;54.14
64792;BME280;51226;47.504;19.074;2023-06-22T06:49:39;100538.63;;;26.48;53.04
64792;BME280;51226;47.504;19.074;2023-06-22T06:52:41;100537.50;;;26.57;51.29
64792;BME280;51226;47.504;19.074;2023-06-22T06:55:44;100544.41;;;26.67;50.57
64792;BME280;51226;47.504;19.074;2023-06-22T06:58:49;100541.50;;;26.76;50.79
64792;BME280;51226;47.504;19.074;2023-06-22T07:01:52;100542.94;;;26.90;50.14
64792;BME280;51226;47.504;19.074;2023-06-22T07:04:55;100539.69;;;27.10;46.96
64792;BME280;51226;47.504;19.074;2023-06-22T07:07:57;100538.59;;;27.17;47.26
64792;BME280;51226;47.504;19.074;2023-06-22T07:11:00;100534.41;;;27.40;45.89
64792;BME280;51226;47.504;19.074;2023-06-22T07:14:03;100533.06;;;27.54;45.67
64792;BME280;51226;47.504;19.074;2023-06-22T07:17:06;100535.13;;;27.75;46.06
64792;BME280;51226;47.504;19.074;2023-06-22T07:20:09;100532.13;;;27.85;45.32
64792;BME280;51226;47.504;19.074;2023-06-22T07:27:05;100527.38;;;28.23;43.32
64792;BME280;51226;47.504;19.074;2023-06-22T07:30:09;100527.06;;;28.33;43.41
64792;BME280;51226;47.504;19.074;2023-06-22T07:33:12;100521.69;;;28.33;44.33
64792;BME280;51226;47.504;19.074;2023-06-22T07:36:16;100528.41;;;28.46;43.28
64792;BME280;51226;47.504;19.074;2023-06-22T07:39:18;100528.50;;;28.70;43.60
64792;BME280;51226;47.504;19.074;2023-06-22T07:42:22;100530.22;;;28.72;44.11
64792;BME280;51226;47.504;19.074;2023-06-22T07:45:25;100524.75;;;28.75;45.69
64792;BME280;51226;47.504;19.074;2023-06-22T07:48:27;100530.72;;;28.83;46.53
64792;BME280;51226;47.504;19.074;2023-06-22T07:51:30;100525.50;;;29.29;42.41
64792;BME280;51226;47.504;19.074;2023-06-22T07:54:33;100521.75;;;29.33;42.82
64792;BME280;51226;47.504;19.074;2023-06-22T07:57:35;100520.66;;;29.39;43.23
64792;BME280;51226;47.504;19.074;2023-06-22T08:00:38;100514.75;;;29.53;42.86
64792;BME280;51226;47.504;19.074;2023-06-22T08:03:41;100511.22;;;29.74;43.52
64792;BME280;51226;47.504;19.074;2023-06-22T08:06:44;100500.88;;;30.09;42.81
64792;BME280;51226;47.504;19.074;2023-06-22T08:09:47;100510.69;;;30.55;40.90
64792;BME280;51226;47.504;19.074;2023-06-22T08:12:50;100517.28;;;30.68;40.56
64792;BME280;51226;47.504;19.074;2023-06-22T08:15:54;100506.44;;;30.70;42.87
64792;BME280;51226;47.504;19.074;2023-06-22T08:18:57;100510.78;;;30.94;39.42
64792;BME280;51226;47.504;19.074;2023-06-22T08:22:00;100509.62;;;31.00;42.44
64792;BME280;51226;47.504;19.074;2023-06-22T08:25:03;100502.72;;;31.13;39.51
64792;BME280;51226;47.504;19.074;2023-06-22T08:28:06;100501.22;;;31.46;38.98
64792;BME280;51226;47.504;19.074;2023-06-22T08:31:09;100500.81;;;31.74;37.72
64792;BME280;51226;47.504;19.074;2023-06-22T08:34:16;100509.91;;;31.90;37.13
64792;BME280;51226;47.504;19.074;2023-06-22T08:37:23;100505.47;;;31.70;38.29
64792;BME280;51226;47.504;19.074;2023-06-22T08:40:27;100499.91;;;31.92;37.33
64792;BME280;51226;47.504;19.074;2023-06-22T08:43:31;100509.41;;;31.82;37.34
64792;BME280;51226;47.504;19.074;2023-06-22T08:46:34;100495.91;;;31.82;38.42
64792;BME280;51226;47.504;19.074;2023-06-22T08:49:36;100489.53;;;32.02;41.07
64792;BME280;51226;47.504;19.074;2023-06-22T08:52:40;100492.16;;;32.40;37.03
64792;BME280;51226;47.504;19.074;2023-06-22T08:55:45;100481.59;;;32.71;36.82
64792;BME280;51226;47.504;19.074;2023-06-22T08:58:48;100481.16;;;32.96;36.57
64792;BME280;51226;47.504;19.074;2023-06-22T09:01:50;100473.59;;;33.20;38.94
64792;BME280;51226;47.504;19.074;2023-06-22T09:04:53;100474.41;;;33.54;39.31
64792;BME280;51226;47.504;19.074;2023-06-22T09:07:57;100482.19;;;33.92;38.25
64792;BME280;51226;47.504;19.074;2023-06-22T09:11:01;100473.31;;;34.20;37.38
64792;BME280;51226;47.504;19.074;2023-06-22T09:14:03;100473.19;;;34.38;36.90
64792;BME280;51226;47.504;19.074;2023-06-22T09:17:07;100469.94;;;34.61;33.31
64792;BME280;51226;47.504;19.074;2023-06-22T09:20:09;100466.94;;;34.21;34.08
64792;BME280;51226;47.504;19.074;2023-06-22T09:23:13;100465.22;;;34.04;36.10
64792;BME280;51226;47.504;19.074;2023-06-22T09:26:17;100456.81;;;34.25;37.85
64792;BME280;51226;47.504;19.074;2023-06-22T09:29:20;100457.87;;;34.67;33.94
64792;BME280;51226;47.504;19.074;2023-06-22T09:32:22;100453.66;;;35.06;33.64
64792;BME280;51226;47.504;19.074;2023-06-22T09:35:25;100449.38;;;35.16;33.23
64792;BME280;51226;47.504;19.074;2023-06-22T09:38:28;100458.22;;;35.49;33.29
64792;BME280;51226;47.504;19.074;2023-06-22T09:41:31;100443.50;;;35.80;32.23
64792;BME280;51226;47.504;19.074;2023-06-22T09:44:33;100440.31;;;36.01;31.79
64792;BME280;51226;47.504;19.074;2023-06-22T09:47:36;100448.03;;;36.07;32.14
64792;BME280;51226;47.504;19.074;2023-06-22T09:50:39;100434.34;;;36.08;31.44
64792;BME280;51226;47.504;19.074;2023-06-22T09:53:42;100441.38;;;35.98;34.80
64792;BME280;51226;47.504;19.074;2023-06-22T09:56:45;100435.69;;;36.15;33.09
64792;BME280;51226;47.504;19.074;2023-06-22T09:59:48;100442.81;;;36.31;32.18
64792;BME280;51226;47.504;19.074;2023-06-22T10:02:52;100437.47;;;36.29;31.07
64792;BME280;51226;47.504;19.074;2023-06-22T10:05:55;100440.22;;;36.15;32.19
64792;BME280;51226;47.504;19.074;2023-06-22T10:08:57;100442.91;;;36.29;32.46
64792;BME280;51226;47.504;19.074;2023-06-22T10:12:00;100439.47;;;36.13;32.07
64792;BME280;51226;47.504;19.074;2023-06-22T10:15:03;100434.34;;;36.08;34.25
64792;BME280;51226;47.504;19.074;2023-06-22T10:18:06;100429.56;;;36.39;32.10
64792;BME280;51226;47.504;19.074;2023-06-22T10:21:09;100437.19;;;36.98;31.21
64792;BME280;51226;47.504;19.074;2023-06-22T10:24:12;100440.59;;;36.89;32.49
64792;BME280;51226;47.504;19.074;2023-06-22T10:27:14;100434.03;;;37.04;30.45
64792;BME280;51226;47.504;19.074;2023-06-22T10:30:17;100427.84;;;37.02;32.04
64792;BME280;51226;47.504;19.074;2023-06-22T10:33:19;100419.75;;;37.26;31.19
64792;BME280;51226;47.504;19.074;2023-06-22T10:36:23;100420.78;;;37.50;31.81
64792;BME280;51226;47.504;19.074;2023-06-22T10:39:25;100426.19;;;37.62;31.45
64792;BME280;51226;47.504;19.074;2023-06-22T10:42:28;100423.34;;;37.88;29.23
64792;BME280;51226;47.504;19.074;2023-06-22T10:45:30;100423.16;;;37.54;30.88
64792;BME280;51226;47.504;19.074;2023-06-22T10:48:34;100416.69;;;37.31;31.63
64792;BME280;51226;47.504;19.074;2023-06-22T10:51:36;100405.72;;;37.33;31.19
64792;BME280;51226;47.504;19.074;2023-06-22T10:54:40;100407.31;;;37.35;32.32
64792;BME280;51226;47.504;19.074;2023-06-22T10:57:43;100409.19;;;37.35;31.46
64792;BME280;51226;47.504;19.074;2023-06-22T11:00:47;100411.16;;;37.57;29.63
64792;BME280;51226;47.504;19.074;2023-06-22T11:03:49;100398.69;;;37.04;29.62
64792;BME280;51226;47.504;19.074;2023-06-22T11:06:52;100410.22;;;36.69;32.05
64792;BME280;51226;47.504;19.074;2023-06-22T11:09:54;100407.00;;;36.77;30.17
64792;BME280;51226;47.504;19.074;2023-06-22T11:12:57;100410.53;;;36.65;30.69
64792;BME280;51226;47.504;19.074;2023-06-22T11:16:00;100406.53;;;36.96;31.30
64792;BME280;51226;47.504;19.074;2023-06-22T11:19:04;100402.19;;;37.43;30.04
64792;BME280;51226;47.504;19.074;2023-06-22T11:22:06;100395.12;;;37.65;29.47
64792;BME280;51226;47.504;19.074;2023-06-22T11:25:10;100390.38;;;37.56;29.73
64792;BME280;51226;47.504;19.074;2023-06-22T11:28:14;100393.06;;;37.69;30.25
64792;BME280;51226;47.504;19.074;2023-06-22T11:31:17;100381.62;;;37.39;30.40
64792;BME280;51226;47.504;19.074;2023-06-22T11:34:27;100383.03;;;36.95;32.24
64792;BME280;51226;47.504;19.074;2023-06-22T11:37:31;100392.19;;;36.94;32.10
64792;BME280;51226;47.504;19.074;2023-06-22T11:40:33;100385.91;;;37.18;30.92
64792;BME280;51226;47.504;19.074;2023-06-22T11:43:36;100382.00;;;37.22;31.55
64792;BME280;51226;47.504;19.074;2023-06-22T11:46:39;100379.72;;;37.16;30.50
64792;BME280;51226;47.504;19.074;2023-06-22T11:49:42;100382.44;;;37.16;31.93
64792;BME280;51226;47.504;19.074;2023-06-22T11:52:44;100379.06;;;37.25;30.41
64792;BME280;51226;47.504;19.074;2023-06-22T11:55:47;100376.53;;;37.35;29.48
64792;BME280;51226;47.504;19.074;2023-06-22T11:58:51;100372.75;;;37.12;29.79
64792;BME280;51226;47.504;19.074;2023-06-22T12:01:54;100375.87;;;36.94;32.42
64792;BME280;51226;47.504;19.074;2023-06-22T12:04:56;100369.00;;;36.88;31.87
64792;BME280;51226;47.504;19.074;2023-06-22T12:08:00;100368.63;;;37.19;31.28
64792;BME280;51226;47.504;19.074;2023-06-22T12:11:03;100361.25;;;37.21;30.93
64792;BME280;51226;47.504;19.074;2023-06-22T12:14:05;100353.13;;;36.69;31.70
64792;BME280;51226;47.504;19.074;2023-06-22T12:17:08;100358.72;;;36.81;31.91
64792;BME280;51226;47.504;19.074;2023-06-22T12:20:11;100354.44;;;36.77;33.67
64792;BME280;51226;47.504;19.074;2023-06-22T12:23:14;100349.22;;;36.74;31.85
64792;BME280;51226;47.504;19.074;2023-06-22T12:26:17;100342.37;;;36.68;33.81
64792;BME280;51226;47.504;19.074;2023-06-22T12:29:19;100336.53;;;36.74;32.19
64792;BME280;51226;47.504;19.074;2023-06-22T12:32:22;100335.97;;;36.82;32.96
64792;BME280;51226;47.504;19.074;2023-06-22T12:35:25;100340.09;;;36.87;32.10
64792;BME280;51226;47.504;19.074;2023-06-22T12:38:28;100330.44;;;36.45;33.38
64792;BME280;51226;47.504;19.074;2023-06-22T12:41:30;100326.09;;;36.29;33.93
64792;BME280;51226;47.504;19.074;2023-06-22T12:44:33;100321.53;;;36.43;34.72
64792;BME280;51226;47.504;19.074;2023-06-22T12:47:36;100319.03;;;36.52;34.49
64792;BME280;51226;47.504;19.074;2023-06-22T12:50:39;100326.91;;;36.68;34.04
64792;BME280;51226;47.504;19.074;2023-06-22T12:53:41;100321.69;;;36.65;32.30
64792;BME280;51226;47.504;19.074;2023-06-22T12:56:44;100322.50;;;36.42;33.70
64792;BME280;51226;47.504;19.074;2023-06-22T12:59:47;100323.16;;;36.32;33.65
64792;BME280;51226;47.504;19.074;2023-06-22T13:02:50;100318.91;;;36.28;33.22
64792;BME280;51226;47.504;19.074;2023-06-22T13:05:54;100316.75;;;36.33;33.11
64792;BME280;51226;47.504;19.074;2023-06-22T13:08:57;100310.00;;;36.26;33.07
64792;BME280;51226;47.504;19.074;2023-06-22T13:12:20;100308.28;;;36.25;34.04
64792;BME280;51226;47.504;19.074;2023-06-22T13:15:23;100293.06;;;36.35;33.35
64792;BME280;51226;47.504;19.074;2023-06-22T13:18:26;100294.37;;;36.30;34.09
64792;BME280;51226;47.504;19.074;2023-06-22T13:21:28;100294.25;;;36.31;32.53
64792;BME280;51226;47.504;19.074;2023-06-22T13:24:31;100287.94;;;36.18;34.36
64792;BME280;51226;47.504;19.074;2023-06-22T13:27:33;100288.50;;;36.10;34.52
64792;BME280;51226;47.504;19.074;2023-06-22T13:30:36;100286.75;;;36.09;35.18
64792;BME280;51226;47.504;19.074;2023-06-22T13:33:39;100281.00;;;36.14;34.03
64792;BME280;51226;47.504;19.074;2023-06-22T13:36:43;100285.34;;;36.04;34.05
64792;BME280;51226;47.504;19.074;2023-06-22T13:39:45;100285.22;;;35.92;34.24
64792;BME280;51226;47.504;19.074;2023-06-22T13:42:48;100279.78;;;35.92;33.52
64792;BME280;51226;47.504;19.074;2023-06-22T13:45:51;100278.59;;;35.84;33.24
64792;BME280;51226;47.504;19.074;2023-06-22T13:48:54;100274.78;;;35.86;32.79
64792;BME280;51226;47.504;19.074;2023-06-22T13:51:59;100276.78;;;35.70;34.05
64792;BME280;51226;47.504;19.074;2023-06-22T13:55:02;100270.06;;;35.62;34.29
64792;BME280;51226;47.504;19.074;2023-06-22T13:58:04;100263.53;;;35.52;35.60
64792;BME280;51226;47.504;19.074;2023-06-22T14:01:07;100258.72;;;35.43;35.66
64792;BME280;51226;47.504;19.074;2023-06-22T14:04:18;100256.66;;;35.34;35.98
64792;BME280;51226;47.504;19.074;2023-06-22T14:07:21;100264.88;;;35.32;35.99
64792;BME280;51226;47.504;19.074;2023-06-22T14:10:24;100262.69;;;35.24;36.00
64792;BME280;51226;47.504;19.074;2023-06-22T14:13:26;100255.16;;;35.15;36.06
64792;BME280;51226;47.504;19.074;2023-06-22T14:16:29;100249.66;;;35.02;36.31
64792;BME280;51226;47.504;19.074;2023-06-22T14:19:31;100257.72;;;34.89;36.31
64792;BME280;51226;47.504;19.074;2023-06-22T14:22:34;100249.44;;;34.78;36.49
64792;BME280;51226;47.504;19.074;2023-06-22T14:25:40;100242.84;;;34.68;36.45
64792;BME280;51226;47.504;19.074;2023-06-22T14:28:46;100235.12;;;34.62;36.01
64792;BME280;51226;47.504;19.074;2023-06-22T14:31:50;100232.91;;;34.54;35.80
64792;BME280;51226;47.504;19.074;2023-06-22T14:34:53;100234.72;;;34.68;34.89
64792;BME280;51226;47.504;19.074;2023-06-22T14:37:56;100232.44;;;34.62;35.50
64792;BME280;51226;47.504;19.074;2023-06-22T14:40:59;100225.31;;;34.32;36.32
64792;BME280;51226;47.504;19.074;2023-06-22T14:44:15;100233.56;;;34.14;36.80
64792;BME280;51226;47.504;19.074;2023-06-22T14:47:18;100228.75;;;34.05;36.54
64792;BME280;51226;47.504;19.074;2023-06-22T14:50:20;100226.34;;;34.29;34.50
64792;BME280;51226;47.504;19.074;2023-06-22T14:53:23;100227.59;;;34.09;35.67
64792;BME280;51226;47.504;19.074;2023-06-22T14:56:26;100227.25;;;34.30;32.87
64792;BME280;51226;47.504;19.074;2023-06-22T14:59:29;100222.97;;;33.97;34.58
64792;BME280;51226;47.504;19.074;2023-06-22T15:02:31;100227.94;;;33.74;35.56
64792;BME280;51226;47.504;19.074;2023-06-22T15:05:34;100216.16;;;33.75;34.86
64792;BME280;51226;47.504;19.074;2023-06-22T15:08:39;100215.34;;;33.59;36.02
64792;BME280;51226;47.504;19.074;2023-06-22T15:11:43;100215.22;;;33.76;34.65
64792;BME280;51226;47.504;19.074;2023-06-22T15:14:46;100206.31;;;33.89;34.43
64792;BME280;51226;47.504;19.074;2023-06-22T15:17:49;100195.34;;;33.62;36.73
64792;BME280;51226;47.504;19.074;2023-06-22T15:20:51;100204.28;;;33.48;35.02
64792;BME280;51226;47.504;19.074;2023-06-22T15:23:54;100190.94;;;33.30;35.95
64792;BME280;51226;47.504;19.074;2023-06-22T15:26:56;100194.81;;;33.40;35.05
64792;BME280;51226;47.504;19.074;2023-06-22T15:30:01;100202.75;;;33.44;34.81
64792;BME280;51226;47.504;19.074;2023-06-22T15:33:05;100194.09;;;33.22;35.40
64792;BME280;51226;47.504;19.074;2023-06-22T15:36:08;100202.03;;;33.10;36.52
64792;BME280;51226;47.504;19.074;2023-06-22T15:39:11;100200.72;;;33.17;36.17
64792;BME280;51226;47.504;19.074;2023-06-22T15:42:14;100195.25;;;33.18;36.41
64792;BME280;51226;47.504;19.074;2023-06-22T15:45:16;100196.87;;;33.21;36.83
64792;BME280;51226;47.504;19.074;2023-06-22T15:48:19;100195.16;;;33.20;37.22
64792;BME280;51226;47.504;19.074;2023-06-22T15:51:22;100204.81;;;33.24;37.20